createdAt,value
2022-12-08T00:00:40.254Z,7.37
2022-12-08T00:03:06.736Z,7.50
2022-12-08T00:05:51.828Z,9.63
2022-12-08T00:08:36.970Z,11.67
2022-12-08T00:11:03.449Z,9.33
2022-12-08T00:13:29.877Z,7.53
2022-12-08T00:16:02.563Z,11.97
2022-12-08T00:18:29.149Z,9.47
2022-12-08T00:20:56.884Z,7.63
2022-12-08T00:23:23.387Z,14.57
2022-12-08T00:25:49.850Z,6.97
2022-12-08T00:28:16.493Z,11.17
2022-12-08T00:30:43.312Z,7.77
2022-12-08T00:33:10.271Z,11.80
2022-12-08T00:35:42.774Z,8.13
2022-12-08T00:38:09.541Z,11.50
2022-12-08T00:40:36.028Z,7.27
2022-12-08T00:43:02.457Z,12.13
2022-12-08T00:45:29.000Z,9.73
2022-12-08T00:47:55.600Z,13.00
2022-12-08T00:50:22.022Z,11.73
2022-12-08T00:52:48.499Z,13.23
2022-12-08T00:55:14.972Z,8.63
2022-12-08T00:57:41.550Z,9.43
2022-12-08T01:00:08.479Z,9.20
2022-12-08T01:02:35.223Z,9.90
2022-12-08T01:05:01.705Z,14.17
2022-12-08T01:07:28.102Z,11.67
2022-12-08T01:09:54.589Z,7.80
2022-12-08T01:12:21.001Z,11.03
2022-12-08T01:14:47.436Z,9.70
2022-12-08T01:17:13.964Z,7.97
2022-12-08T01:19:40.390Z,11.33
2022-12-08T01:22:06.789Z,13.73
2022-12-08T01:24:33.567Z,9.57
2022-12-08T01:27:00.104Z,10.43
2022-12-08T01:29:27.837Z,6.50
2022-12-08T01:31:54.253Z,9.10
2022-12-08T01:34:20.706Z,10.90
2022-12-08T01:36:48.038Z,8.87
2022-12-08T01:39:16.417Z,6.90
2022-12-08T01:41:44.036Z,8.73
2022-12-08T01:44:13.138Z,10.47
2022-12-08T01:46:41.758Z,8.90
2022-12-08T01:49:20.562Z,8.87
2022-12-08T01:52:00.014Z,13.37
2022-12-08T01:54:29.783Z,6.03
2022-12-08T01:57:01.416Z,6.37
2022-12-08T01:59:29.072Z,8.87
2022-12-08T02:01:55.982Z,11.07
2022-12-08T02:04:22.509Z,11.37
2022-12-08T02:06:49.310Z,9.33
2022-12-08T02:09:15.933Z,9.47
2022-12-08T02:11:42.354Z,8.80
2022-12-08T02:14:11.439Z,10.50
2022-12-08T02:17:13.333Z,9.07
2022-12-08T02:20:15.545Z,8.83
2022-12-08T02:22:55.180Z,10.17
2022-12-08T02:25:27.269Z,11.37
2022-12-08T02:28:05.453Z,6.27
2022-12-08T02:30:47.054Z,12.53
2022-12-08T02:33:45.153Z,9.43
2022-12-08T02:36:20.496Z,9.40
2022-12-08T02:39:01.499Z,9.90
2022-12-08T02:41:46.433Z,8.87
2022-12-08T02:44:20.327Z,9.93
2022-12-08T02:46:56.313Z,8.63
2022-12-08T02:49:31.843Z,7.03
2022-12-08T02:52:28.367Z,7.20
2022-12-08T02:54:58.428Z,10.77
2022-12-08T02:57:24.723Z,9.47
2022-12-08T02:59:57.917Z,13.03
2022-12-08T03:02:34.715Z,6.53
2022-12-08T03:05:14.718Z,11.27
2022-12-08T03:07:48.179Z,11.50
2022-12-08T03:10:35.529Z,7.83
2022-12-08T03:13:21.293Z,9.80
2022-12-08T03:15:49.575Z,10.30
2022-12-08T03:18:17.343Z,9.90
2022-12-08T03:20:45.222Z,12.40
2022-12-08T03:23:12.814Z,12.30
2022-12-08T03:25:43.634Z,11.20
2022-12-08T03:28:10.295Z,6.77
2022-12-08T03:30:39.417Z,9.90
2022-12-08T03:33:15.624Z,9.83
2022-12-08T03:35:42.978Z,8.93
2022-12-08T03:38:15.464Z,7.43
2022-12-08T03:40:42.253Z,8.57
2022-12-08T03:43:08.774Z,8.67
2022-12-08T03:45:35.246Z,7.07
2022-12-08T03:48:01.776Z,11.47
2022-12-08T03:50:28.355Z,6.40
2022-12-08T03:52:54.865Z,9.43
2022-12-08T03:55:21.525Z,8.40
2022-12-08T03:57:47.942Z,8.30
2022-12-08T04:00:15.756Z,6.30
2022-12-08T04:02:42.209Z,5.77
2022-12-08T04:05:09.123Z,7.90
2022-12-08T04:07:35.646Z,6.70
2022-12-08T04:10:02.452Z,8.17
2022-12-08T04:12:28.987Z,8.87
2022-12-08T04:14:56.786Z,10.90
2022-12-08T04:17:23.361Z,6.37
2022-12-08T04:19:49.774Z,9.40
2022-12-08T04:22:16.293Z,7.93
2022-12-08T04:24:42.718Z,10.33
2022-12-08T04:27:09.079Z,7.60
2022-12-08T04:29:35.481Z,7.03
2022-12-08T04:32:01.850Z,7.63
2022-12-08T04:34:28.282Z,6.53
2022-12-08T04:36:54.804Z,6.43
2022-12-08T04:39:21.244Z,7.97
2022-12-08T04:41:47.694Z,10.33
2022-12-08T04:44:14.082Z,9.80
2022-12-08T04:46:43.557Z,6.20
2022-12-08T04:49:10.366Z,6.97
2022-12-08T04:51:36.776Z,7.33
2022-12-08T04:54:03.176Z,6.03
2022-12-08T04:56:30.420Z,5.93
2022-12-08T04:58:56.823Z,3.97
2022-12-08T05:01:23.313Z,9.97
2022-12-08T05:03:49.889Z,5.87
2022-12-08T05:06:16.394Z,5.13
2022-12-08T05:08:43.702Z,4.90
2022-12-08T05:11:11.738Z,9.77
2022-12-08T05:13:38.147Z,5.27
2022-12-08T05:16:06.983Z,8.90
2022-12-08T05:18:33.532Z,7.17
2022-12-08T05:21:00.017Z,7.40
2022-12-08T05:23:27.342Z,5.90
2022-12-08T05:25:53.783Z,5.73
2022-12-08T05:28:40.914Z,5.20
2022-12-08T05:31:06.851Z,4.93
2022-12-08T05:33:33.340Z,8.90
2022-12-08T05:35:59.793Z,6.67
2022-12-08T05:38:26.399Z,6.73
2022-12-08T05:40:52.817Z,5.57
2022-12-08T05:43:19.197Z,4.80
2022-12-08T05:46:08.280Z,6.90
2022-12-08T05:48:35.596Z,6.40
2022-12-08T05:51:02.111Z,4.70
2022-12-08T05:53:28.546Z,7.77
2022-12-08T05:55:55.022Z,5.53
2022-12-08T05:58:22.840Z,5.80
2022-12-08T06:00:50.413Z,6.00
2022-12-08T06:03:18.485Z,5.07
2022-12-08T06:05:46.498Z,5.07
2022-12-08T06:08:13.480Z,7.20
2022-12-08T06:10:41.565Z,5.10
2022-12-08T06:13:08.263Z,6.10
2022-12-08T06:15:35.762Z,5.97
2022-12-08T06:18:02.205Z,8.93
2022-12-08T06:20:28.737Z,7.03
2022-12-08T06:22:55.821Z,4.33
2022-12-08T06:25:22.940Z,6.20
2022-12-08T06:27:49.480Z,5.97
2022-12-08T06:30:16.440Z,5.70
2022-12-08T06:32:43.977Z,5.73
2022-12-08T06:35:10.627Z,5.07
2022-12-08T06:37:37.066Z,5.90
2022-12-08T06:40:04.069Z,8.00
2022-12-08T06:42:46.882Z,6.37
2022-12-08T06:45:16.040Z,3.33
2022-12-08T06:47:42.925Z,5.20
2022-12-08T06:50:10.533Z,6.23
2022-12-08T06:52:45.297Z,7.50
2022-12-08T06:55:42.123Z,5.53
2022-12-08T06:58:02.389Z,5.37
2022-12-08T07:00:28.849Z,7.77
2022-12-08T07:02:55.371Z,5.30
2022-12-08T07:05:21.818Z,4.03
2022-12-08T07:07:48.290Z,5.43
2022-12-08T07:10:14.886Z,4.77
2022-12-08T07:12:41.300Z,5.33
2022-12-08T07:15:08.511Z,4.43
2022-12-08T07:17:34.973Z,3.53
2022-12-08T07:20:01.995Z,4.80
2022-12-08T07:22:28.730Z,5.37
2022-12-08T07:24:55.199Z,4.53
2022-12-08T07:27:21.606Z,4.40
2022-12-08T07:29:48.028Z,3.37
2022-12-08T07:32:14.495Z,4.13
2022-12-08T07:34:40.939Z,4.60
2022-12-08T07:37:07.364Z,3.97
2022-12-08T07:39:33.903Z,3.80
2022-12-08T07:42:01.631Z,4.00
2022-12-08T07:44:28.026Z,6.43
2022-12-08T07:46:54.445Z,5.60
2022-12-08T07:49:21.092Z,5.10
2022-12-08T07:51:47.520Z,3.43
2022-12-08T07:54:13.929Z,5.23
2022-12-08T07:56:40.373Z,6.03
2022-12-08T07:59:06.781Z,6.30
2022-12-08T08:01:34.586Z,4.53
2022-12-08T08:04:04.268Z,6.47
2022-12-08T08:06:31.932Z,3.80
2022-12-08T08:08:58.395Z,3.47
2022-12-08T08:11:25.017Z,4.07
2022-12-08T08:13:52.511Z,4.70
2022-12-08T08:16:21.970Z,4.47
2022-12-08T08:18:50.269Z,4.10
2022-12-08T08:24:04.611Z,4.03
2022-12-08T08:26:31.049Z,5.23
2022-12-08T08:28:57.472Z,6.17
2022-12-08T08:31:27.326Z,3.70
2022-12-08T08:33:54.497Z,5.40
2022-12-08T08:36:22.096Z,6.63
2022-12-08T08:38:48.721Z,4.23
2022-12-08T08:41:15.168Z,6.67
2022-12-08T08:43:41.596Z,6.63
2022-12-08T08:46:09.061Z,4.47
2022-12-08T08:48:36.236Z,2.70
2022-12-08T08:51:13.786Z,3.93
2022-12-08T08:53:40.783Z,2.50
2022-12-08T08:56:15.606Z,3.60
2022-12-08T08:58:42.613Z,4.43
2022-12-08T09:01:09.349Z,2.97
2022-12-08T09:03:35.838Z,3.03
2022-12-08T09:06:02.323Z,3.47
2022-12-08T09:08:28.865Z,2.77
2022-12-08T09:10:55.369Z,3.53
2022-12-08T09:13:22.322Z,4.17
2022-12-08T09:15:49.198Z,3.27
2022-12-08T09:18:15.710Z,2.63
2022-12-08T09:20:42.377Z,2.33
2022-12-08T09:23:08.833Z,4.83
2022-12-08T09:25:35.228Z,2.10
2022-12-08T09:28:01.666Z,3.13
2022-12-08T09:30:28.052Z,2.30
2022-12-08T09:32:54.543Z,2.70
2022-12-08T09:35:20.985Z,3.00
2022-12-08T09:37:47.392Z,4.10
2022-12-08T09:40:17.754Z,3.00
2022-12-08T09:42:52.095Z,2.20
2022-12-08T09:45:19.445Z,3.10
2022-12-08T09:47:52.622Z,3.17
2022-12-08T09:50:30.388Z,4.20
2022-12-08T09:53:03.891Z,4.13
2022-12-08T09:55:52.916Z,3.20
2022-12-08T09:58:29.232Z,6.70
2022-12-08T10:00:56.252Z,6.00
2022-12-08T10:03:25.477Z,5.80
2022-12-08T10:06:20.673Z,6.50
2022-12-08T10:09:24.085Z,3.53
2022-12-08T10:11:55.451Z,3.93
2022-12-08T10:14:37.600Z,6.60
2022-12-08T10:17:14.764Z,5.67
2022-12-08T10:19:43.412Z,4.63
2022-12-08T10:22:18.029Z,4.57
2022-12-08T10:24:53.309Z,4.07
2022-12-08T10:27:20.297Z,2.97
2022-12-08T10:29:46.937Z,2.30
2022-12-08T10:32:19.786Z,3.93
2022-12-08T10:35:08.705Z,5.63
2022-12-08T10:37:35.691Z,4.77
2022-12-08T10:40:14.593Z,5.33
2022-12-08T10:42:49.173Z,5.77
2022-12-08T10:45:37.352Z,8.03
2022-12-08T10:48:18.158Z,5.13
2022-12-08T10:50:47.307Z,5.00
2022-12-08T10:53:23.897Z,6.20
2022-12-08T10:55:52.599Z,7.03
2022-12-08T10:58:29.815Z,5.97
2022-12-08T11:01:26.833Z,9.30
2022-12-08T11:04:05.266Z,11.10
2022-12-08T11:06:35.137Z,8.37
2022-12-08T11:09:04.796Z,8.83
2022-12-08T11:11:49.639Z,9.53
2022-12-08T11:14:25.472Z,8.30
2022-12-08T11:16:55.089Z,7.20
2022-12-08T11:19:22.357Z,8.07
2022-12-08T11:21:48.844Z,7.27
2022-12-08T11:24:15.448Z,6.87
2022-12-08T11:27:08.551Z,6.13
2022-12-08T11:29:35.791Z,6.87
2022-12-08T11:32:12.981Z,3.47
2022-12-08T11:34:48.693Z,4.03
2022-12-08T11:37:38.363Z,8.13
2022-12-08T11:40:11.065Z,3.97
2022-12-08T11:43:04.627Z,7.43
2022-12-08T11:45:33.952Z,11.83
2022-12-08T11:48:17.150Z,4.40
2022-12-08T11:50:50.883Z,6.70
2022-12-08T11:53:28.116Z,3.87
2022-12-08T11:56:00.943Z,7.97
2022-12-08T11:58:41.338Z,4.73
2022-12-08T12:01:19.021Z,2.40
2022-12-08T12:03:49.793Z,3.00
2022-12-08T12:06:53.163Z,4.23
2022-12-08T12:09:23.010Z,5.33
2022-12-08T12:12:33.749Z,3.67
2022-12-08T12:15:17.840Z,2.03
2022-12-08T12:17:47.436Z,4.43
2022-12-08T12:20:42.586Z,3.90
2022-12-08T12:23:11.545Z,5.53
2022-12-08T12:25:38.361Z,3.27
2022-12-08T12:28:07.060Z,4.63
2022-12-08T12:30:51.241Z,3.67
2022-12-08T12:33:19.559Z,4.53
2022-12-08T12:35:49.517Z,6.70
2022-12-08T12:38:51.159Z,2.93
2022-12-08T12:41:27.236Z,6.27
2022-12-08T12:44:11.952Z,6.87
2022-12-08T12:46:40.111Z,3.27
2022-12-08T12:49:37.739Z,3.53
2022-12-08T12:52:10.443Z,5.50
2022-12-08T12:54:45.567Z,4.97
2022-12-08T12:57:11.954Z,5.47
2022-12-08T12:59:48.977Z,4.33
2022-12-08T13:02:30.927Z,7.33
2022-12-08T13:04:57.658Z,3.77
2022-12-08T13:07:31.056Z,6.10
2022-12-08T13:10:02.788Z,4.20
2022-12-08T13:12:29.696Z,4.30
2022-12-08T13:15:03.194Z,5.90
2022-12-08T13:17:32.184Z,5.43
2022-12-08T13:20:00.779Z,4.50
2022-12-08T13:23:13.698Z,5.87
2022-12-08T13:25:40.103Z,3.10
2022-12-08T13:28:29.355Z,4.00
2022-12-08T13:31:00.410Z,5.17
2022-12-08T13:33:34.064Z,7.17
2022-12-08T13:36:06.552Z,4.13
2022-12-08T13:38:35.530Z,5.80
2022-12-08T13:41:04.649Z,2.77
2022-12-08T13:44:56.641Z,4.57
2022-12-08T13:47:24.729Z,8.50
2022-12-08T13:58:29.308Z,6.47
2022-12-08T14:01:18.057Z,3.30
2022-12-08T14:04:04.718Z,7.77
2022-12-08T14:06:42.455Z,7.87
2022-12-08T14:09:16.010Z,3.43
2022-12-08T14:11:47.669Z,3.53
2022-12-08T14:14:32.798Z,7.03
2022-12-08T14:17:07.699Z,6.13
2022-12-08T14:19:35.984Z,6.10
2022-12-08T14:22:09.910Z,5.73
2022-12-08T14:24:36.729Z,10.37
2022-12-08T14:27:05.408Z,8.40
2022-12-08T14:29:44.878Z,5.80
2022-12-08T14:32:34.270Z,4.97
2022-12-08T14:35:06.930Z,5.73
2022-12-08T14:37:44.958Z,7.47
2022-12-08T14:40:25.304Z,5.00
2022-12-08T14:43:13.601Z,6.07
2022-12-08T14:45:43.023Z,6.20
2022-12-08T14:48:30.894Z,7.20
2022-12-08T14:51:01.808Z,8.37
2022-12-08T14:53:36.378Z,8.17
2022-12-08T14:56:14.219Z,4.13
2022-12-08T14:58:40.992Z,7.47
2022-12-08T15:01:10.420Z,7.40
2022-12-08T15:03:37.138Z,9.03
2022-12-08T15:06:06.159Z,5.30
2022-12-08T15:08:33.775Z,9.03
2022-12-08T15:11:21.845Z,7.27
2022-12-08T15:13:50.597Z,7.13
2022-12-08T15:16:40.168Z,6.40
2022-12-08T15:19:16.878Z,5.53
2022-12-08T15:21:44.582Z,9.37
2022-12-08T15:24:12.708Z,6.87
2022-12-08T15:26:42.283Z,6.50
2022-12-08T15:29:16.861Z,8.57
2022-12-08T15:31:43.287Z,6.63
2022-12-08T15:34:09.892Z,7.53
2022-12-08T15:36:38.164Z,8.80
2022-12-08T15:39:06.533Z,10.93
2022-12-08T15:41:32.918Z,8.67
2022-12-08T15:43:59.629Z,7.70
2022-12-08T15:46:26.178Z,8.83
2022-12-08T15:48:57.937Z,8.83
2022-12-08T15:51:24.738Z,9.90
2022-12-08T15:53:51.312Z,10.70
2022-12-08T15:56:34.437Z,9.20
2022-12-08T15:59:04.014Z,10.23
2022-12-08T16:01:30.482Z,9.80
2022-12-08T16:04:27.933Z,10.70
2022-12-08T16:09:40.110Z,11.33
2022-12-08T16:13:34.035Z,11.53
2022-12-08T16:18:16.603Z,11.90
2022-12-08T16:21:07.564Z,10.23
2022-12-08T16:23:45.611Z,14.03
2022-12-08T16:29:05.866Z,13.20
2022-12-08T16:31:32.651Z,11.77
2022-12-08T16:33:59.504Z,8.43
2022-12-08T16:36:26.241Z,8.33
2022-12-08T16:38:52.725Z,10.03
2022-12-08T16:41:37.838Z,11.47
2022-12-08T16:44:06.080Z,9.73
2022-12-08T16:46:33.656Z,16.03
2022-12-08T16:49:00.128Z,15.40
2022-12-08T16:51:27.298Z,10.97
2022-12-08T16:53:55.074Z,17.50
2022-12-08T16:56:26.207Z,14.83
2022-12-08T16:58:57.199Z,16.17
2022-12-08T17:01:23.938Z,13.50
2022-12-08T17:04:07.470Z,13.57
2022-12-08T17:06:36.830Z,16.33
2022-12-08T17:09:03.417Z,17.60
2022-12-08T17:11:36.234Z,14.07
2022-12-08T17:14:09.085Z,15.33
2022-12-08T17:16:35.695Z,12.37
2022-12-08T17:19:02.684Z,13.37
2022-12-08T17:21:29.186Z,16.97
2022-12-08T17:23:55.880Z,16.53
2022-12-08T17:26:22.352Z,14.33
2022-12-08T17:29:04.258Z,13.30
2022-12-08T17:31:32.464Z,15.43
2022-12-08T17:34:03.070Z,14.60
2022-12-08T17:36:29.569Z,14.67
2022-12-08T17:38:57.211Z,16.90
2022-12-08T17:41:23.635Z,11.67
2022-12-08T17:43:50.114Z,11.33
2022-12-08T17:46:20.492Z,15.07
2022-12-08T17:48:47.371Z,11.83
2022-12-08T17:51:14.332Z,14.77
2022-12-08T17:53:40.889Z,11.87
2022-12-08T17:56:14.963Z,15.93
2022-12-08T17:58:41.379Z,14.43
2022-12-08T18:01:09.792Z,13.20
2022-12-08T18:03:36.846Z,16.40
2022-12-08T18:06:08.173Z,16.97
2022-12-08T18:08:34.585Z,14.87
2022-12-08T18:11:01.429Z,24.30
2022-12-08T18:13:27.930Z,16.00
2022-12-08T18:15:54.364Z,25.50
2022-12-08T18:18:22.536Z,15.57
2022-12-08T18:20:49.601Z,12.83
2022-12-08T18:23:17.103Z,15.07
2022-12-08T18:25:44.676Z,16.83
2022-12-08T18:28:11.145Z,15.23
2022-12-08T18:30:37.736Z,14.90
2022-12-08T18:33:05.120Z,13.70
2022-12-08T18:35:32.000Z,13.50
2022-12-08T18:38:00.053Z,13.63
2022-12-08T18:40:28.014Z,15.87
2022-12-08T18:42:54.636Z,15.93
2022-12-08T18:45:22.765Z,15.97
2022-12-08T18:47:50.402Z,15.27
2022-12-08T18:50:17.385Z,11.73
2022-12-08T18:52:45.194Z,16.07
2022-12-08T18:55:12.024Z,15.63
2022-12-08T18:57:39.599Z,16.67
2022-12-08T19:00:08.032Z,16.73
2022-12-08T19:02:37.423Z,15.50
2022-12-08T19:05:04.616Z,13.00
2022-12-08T19:07:31.034Z,19.17
2022-12-08T19:09:59.099Z,15.77
2022-12-08T19:12:25.504Z,17.57
2022-12-08T19:14:51.958Z,16.60
2022-12-08T19:17:18.355Z,16.60
2022-12-08T19:19:45.317Z,15.73
2022-12-08T19:22:12.276Z,21.83
2022-12-08T19:24:38.802Z,16.47
2022-12-08T19:27:05.737Z,21.97
2022-12-08T19:29:32.289Z,18.60
2022-12-08T19:32:00.209Z,19.20
2022-12-08T19:34:26.716Z,16.80
2022-12-08T19:36:53.381Z,16.10
2022-12-08T19:39:40.699Z,16.63
2022-12-08T19:42:37.498Z,17.43
2022-12-08T19:45:07.861Z,18.03
2022-12-08T19:47:34.421Z,15.27
2022-12-08T19:50:20.184Z,14.53
2022-12-08T19:52:46.634Z,17.53
2022-12-08T19:55:13.432Z,20.40
2022-12-08T19:57:39.886Z,14.83
2022-12-08T20:00:08.297Z,16.17
2022-12-08T20:02:36.339Z,18.83
2022-12-08T20:05:04.544Z,16.53
2022-12-08T20:07:31.028Z,23.20
2022-12-08T20:09:57.465Z,26.60
2022-12-08T20:12:24.238Z,20.40
2022-12-08T20:14:50.659Z,20.10
2022-12-08T20:17:17.101Z,26.10
2022-12-08T20:19:43.655Z,19.50
2022-12-08T20:22:10.120Z,19.30
2022-12-08T20:24:36.582Z,17.47
2022-12-08T20:27:02.981Z,17.40
2022-12-08T20:29:29.498Z,19.60
2022-12-08T20:31:55.980Z,19.67
2022-12-08T20:34:22.449Z,16.17
2022-12-08T20:36:48.927Z,16.70
2022-12-08T20:39:17.071Z,19.37
2022-12-08T20:41:45.004Z,16.50
2022-12-08T20:44:11.921Z,15.83
2022-12-08T20:46:38.571Z,15.03
2022-12-08T20:49:05.738Z,13.30
2022-12-08T20:51:33.590Z,18.37
2022-12-08T20:54:00.167Z,18.17
2022-12-08T20:56:27.130Z,16.23
2022-12-08T20:58:53.934Z,17.83
2022-12-08T21:01:22.691Z,17.73
2022-12-08T21:03:50.384Z,15.47
2022-12-08T21:06:22.180Z,19.20
2022-12-08T21:08:48.947Z,17.77
2022-12-08T21:11:15.987Z,16.97
2022-12-08T21:13:43.161Z,16.43
2022-12-08T21:16:13.020Z,15.03
2022-12-08T21:18:40.207Z,19.67
2022-12-08T21:21:13.011Z,17.90
2022-12-08T21:23:40.518Z,18.23
2022-12-08T21:26:18.436Z,19.17
2022-12-08T21:28:45.947Z,20.53
2022-12-08T21:31:16.040Z,23.07
2022-12-08T21:33:42.787Z,20.87
2022-12-08T21:36:14.656Z,22.93
2022-12-08T21:38:42.257Z,19.23
2022-12-08T21:41:10.998Z,18.97
2022-12-08T21:43:37.783Z,19.60
2022-12-08T21:46:04.783Z,18.43
2022-12-08T21:48:31.515Z,20.57
2022-12-08T21:51:04.348Z,19.93
2022-12-08T21:53:30.841Z,21.23
2022-12-08T21:55:57.407Z,21.97
2022-12-08T21:58:23.861Z,23.37
2022-12-08T22:00:50.570Z,22.67
2022-12-08T22:03:17.337Z,21.60
2022-12-08T22:05:44.079Z,24.77
2022-12-08T22:08:10.718Z,23.50
2022-12-08T22:10:38.345Z,21.13
2022-12-08T22:13:11.416Z,21.33
2022-12-08T22:15:38.099Z,23.40
2022-12-08T22:18:05.295Z,24.27
2022-12-08T22:20:43.724Z,23.57
2022-12-08T22:23:11.103Z,22.57
2022-12-08T22:25:37.715Z,23.70
2022-12-08T22:28:04.688Z,22.37
2022-12-08T22:30:37.229Z,25.70
2022-12-08T22:33:05.516Z,24.67
2022-12-08T22:35:32.171Z,25.97
2022-12-08T22:37:58.715Z,26.00
2022-12-08T22:40:25.258Z,28.90
2022-12-08T22:42:51.803Z,22.20
2022-12-08T22:45:18.459Z,21.80
2022-12-08T22:47:45.037Z,30.17
2022-12-08T22:50:11.944Z,25.03
2022-12-08T22:52:38.848Z,23.53
2022-12-08T22:55:05.893Z,22.93
2022-12-08T22:57:32.805Z,25.90
2022-12-08T22:59:59.242Z,22.93
2022-12-08T23:02:25.915Z,25.30
2022-12-08T23:04:56.214Z,25.23
2022-12-08T23:07:23.062Z,24.97
2022-12-08T23:09:49.577Z,22.67
2022-12-08T23:12:16.028Z,22.53
2022-12-08T23:14:42.761Z,24.20
2022-12-08T23:17:10.894Z,22.63
2022-12-08T23:19:38.698Z,20.80
2022-12-08T23:22:05.403Z,24.43
2022-12-08T23:24:31.957Z,23.17
2022-12-08T23:26:58.539Z,23.57
2022-12-08T23:29:25.153Z,21.33
2022-12-08T23:31:51.704Z,22.20
2022-12-08T23:34:18.396Z,28.57
2022-12-08T23:36:44.925Z,25.27
2022-12-08T23:39:11.422Z,20.97
2022-12-08T23:41:38.283Z,25.73
2022-12-08T23:44:04.683Z,23.87
2022-12-08T23:46:31.138Z,21.07
2022-12-08T23:48:57.699Z,22.93
2022-12-08T23:51:24.120Z,22.33
2022-12-08T23:53:50.514Z,26.53
2022-12-08T23:56:17.910Z,24.43
2022-12-08T23:58:45.093Z,24.80
